createdAt,value
2022-12-01T00:01:52.244Z,6.80
2022-12-01T00:04:21.109Z,7.30
2022-12-01T00:06:52.119Z,6.10
2022-12-01T00:09:39.171Z,6.80
2022-12-01T00:12:07.650Z,6.30
2022-12-01T00:14:36.179Z,6.10
2022-12-01T00:17:05.597Z,6.30
2022-12-01T00:19:34.255Z,6.70
2022-12-01T00:22:03.019Z,5.80
2022-12-01T00:24:34.309Z,6.80
2022-12-01T00:27:02.781Z,6.40
2022-12-01T00:29:30.986Z,6.20
2022-12-01T00:31:59.262Z,6.00
2022-12-01T00:34:28.384Z,6.70
2022-12-01T00:36:56.724Z,6.20
2022-12-01T00:42:11.613Z,5.90
2022-12-01T00:44:41.568Z,6.30
2022-12-01T00:47:22.909Z,6.70
2022-12-01T00:49:52.465Z,6.50
2022-12-01T00:52:21.520Z,6.00
2022-12-01T00:54:56.418Z,6.40
2022-12-01T00:57:25.179Z,6.10
2022-12-01T00:59:53.506Z,5.80
2022-12-01T01:02:22.137Z,6.40
2022-12-01T01:04:51.039Z,6.20
2022-12-01T01:07:20.496Z,5.90
2022-12-01T01:09:49.687Z,5.70
2022-12-01T01:12:18.639Z,5.20
2022-12-01T01:14:47.552Z,6.10
2022-12-01T01:17:18.351Z,5.70
2022-12-01T01:19:47.009Z,5.00
2022-12-01T01:22:17.172Z,5.30
2022-12-01T01:24:45.752Z,4.60
2022-12-01T01:27:14.569Z,5.10
2022-12-01T01:29:43.578Z,4.10
2022-12-01T01:32:31.643Z,3.90
2022-12-01T01:34:59.993Z,4.00
2022-12-01T01:37:28.414Z,4.10
2022-12-01T01:39:56.922Z,4.10
2022-12-01T01:42:28.360Z,4.20
2022-12-01T01:44:58.982Z,3.90
2022-12-01T01:47:32.529Z,4.20
2022-12-01T01:50:08.757Z,4.40
2022-12-01T01:52:46.561Z,4.40
2022-12-01T01:55:15.467Z,4.50
2022-12-01T01:57:47.273Z,3.90
2022-12-01T02:00:20.853Z,4.40
2022-12-01T02:02:51.168Z,3.90
2022-12-01T02:05:28.128Z,4.40
2022-12-01T02:07:59.535Z,4.00
2022-12-01T02:10:34.213Z,4.00
2022-12-01T02:13:46.630Z,4.20
2022-12-01T02:16:26.319Z,3.80
2022-12-01T02:19:19.772Z,4.40
2022-12-01T02:22:18.851Z,4.10
2022-12-01T02:24:47.087Z,4.60
2022-12-01T02:27:54.117Z,5.50
2022-12-01T02:30:54.426Z,5.50
2022-12-01T02:34:04.003Z,5.70
2022-12-01T02:36:50.689Z,5.40
2022-12-01T02:39:29.495Z,5.10
2022-12-01T02:42:38.211Z,5.30
2022-12-01T02:45:13.516Z,5.70
2022-12-01T02:47:45.025Z,5.20
2022-12-01T02:50:13.908Z,5.60
2022-12-01T02:52:43.174Z,5.40
2022-12-01T02:55:13.167Z,6.70
2022-12-01T02:57:41.418Z,5.10
2022-12-01T03:00:16.281Z,6.00
2022-12-01T03:03:13.761Z,7.10
2022-12-01T03:06:24.312Z,5.60
2022-12-01T03:11:33.791Z,4.40
2022-12-01T03:14:25.107Z,5.40
2022-12-01T03:16:54.540Z,4.50
2022-12-01T03:19:22.583Z,4.90
2022-12-01T03:22:02.955Z,4.80
2022-12-01T03:24:33.146Z,4.20
2022-12-01T03:27:04.037Z,4.10
2022-12-01T03:29:54.807Z,4.00
2022-12-01T03:32:32.424Z,4.80
2022-12-01T03:35:07.001Z,4.60
2022-12-01T03:37:57.498Z,4.10
2022-12-01T03:43:03.079Z,4.70
2022-12-01T03:45:41.130Z,4.70
2022-12-01T03:48:09.391Z,4.60
2022-12-01T03:50:56.807Z,4.40
2022-12-01T03:53:32.535Z,4.50
2022-12-01T03:56:05.460Z,3.90
2022-12-01T03:58:41.098Z,4.40
2022-12-01T04:01:10.230Z,4.50
2022-12-01T04:03:41.095Z,5.40
2022-12-01T04:06:09.170Z,4.90
2022-12-01T04:08:37.864Z,4.50
2022-12-01T04:11:32.170Z,4.40
2022-12-01T04:14:00.763Z,4.80
2022-12-01T04:16:28.956Z,6.10
2022-12-01T04:18:57.238Z,5.40
2022-12-01T04:21:25.474Z,6.20
2022-12-01T04:24:02.884Z,5.40
2022-12-01T04:26:33.886Z,5.50
2022-12-01T04:29:05.504Z,5.80
2022-12-01T04:31:33.740Z,5.90
2022-12-01T04:34:02.399Z,5.60
2022-12-01T04:36:32.584Z,5.80
2022-12-01T04:39:01.419Z,5.10
2022-12-01T04:41:29.610Z,5.50
2022-12-01T04:43:57.735Z,5.20
2022-12-01T04:46:26.434Z,5.30
2022-12-01T04:48:54.889Z,5.30
2022-12-01T04:51:23.187Z,5.40
2022-12-01T04:53:51.336Z,5.50
2022-12-01T04:56:19.526Z,5.00
2022-12-01T04:58:47.686Z,6.00
2022-12-01T05:01:18.245Z,5.80
2022-12-01T05:03:51.322Z,5.10
2022-12-01T05:06:29.000Z,6.10
2022-12-01T05:08:59.445Z,6.30
2022-12-01T05:11:31.956Z,6.50
2022-12-01T05:14:00.396Z,6.30
2022-12-01T05:16:32.572Z,6.00
2022-12-01T05:19:22.390Z,6.20
2022-12-01T05:21:51.023Z,5.80
2022-12-01T05:24:20.667Z,6.70
2022-12-01T05:26:48.932Z,6.20
2022-12-01T05:29:17.800Z,6.20
2022-12-01T05:31:47.054Z,6.10
2022-12-01T05:34:15.348Z,6.10
2022-12-01T05:36:43.415Z,5.50
2022-12-01T05:39:11.475Z,5.40
2022-12-01T05:41:39.589Z,5.00
2022-12-01T05:44:07.659Z,5.30
2022-12-01T05:46:35.676Z,5.20
2022-12-01T05:49:04.044Z,6.50
2022-12-01T05:51:32.244Z,5.90
2022-12-01T05:54:00.796Z,6.40
2022-12-01T05:56:29.393Z,6.00
2022-12-01T05:58:57.857Z,5.80
2022-12-01T06:01:25.921Z,5.50
2022-12-01T06:03:54.971Z,5.00
2022-12-01T06:06:23.140Z,6.40
2022-12-01T06:08:51.171Z,6.10
2022-12-01T06:11:19.280Z,8.00
2022-12-01T06:13:47.514Z,8.00
2022-12-01T06:16:15.847Z,8.40
2022-12-01T06:18:44.138Z,8.30
2022-12-01T06:21:12.289Z,9.40
2022-12-01T06:23:40.404Z,10.60
2022-12-01T06:26:08.791Z,10.10
2022-12-01T06:28:36.959Z,10.90
2022-12-01T06:31:05.211Z,10.80
2022-12-01T06:33:33.349Z,12.40
2022-12-01T06:36:03.666Z,10.40
2022-12-01T06:38:34.475Z,9.00
2022-12-01T06:41:03.666Z,8.60
2022-12-01T06:43:31.945Z,8.00
2022-12-01T06:46:02.744Z,7.80
2022-12-01T06:48:31.739Z,7.00
2022-12-01T06:51:01.321Z,8.20
2022-12-01T06:53:29.768Z,7.80
2022-12-01T06:56:01.746Z,8.80
2022-12-01T06:58:31.131Z,6.70
2022-12-01T07:00:59.918Z,7.20
2022-12-01T07:03:28.048Z,7.40
2022-12-01T07:05:59.170Z,6.00
2022-12-01T07:08:29.317Z,6.40
2022-12-01T07:11:03.040Z,6.70
2022-12-01T07:13:33.889Z,7.60
2022-12-01T07:16:03.558Z,6.50
2022-12-01T07:18:33.072Z,12.50
2022-12-01T07:21:02.419Z,23.90
2022-12-01T07:23:31.260Z,19.70
2022-12-01T07:26:00.369Z,14.50
2022-12-01T07:28:29.405Z,11.20
2022-12-01T07:31:15.688Z,8.00
2022-12-01T07:33:44.257Z,10.10
2022-12-01T07:36:13.483Z,9.50
2022-12-01T07:38:42.315Z,9.40
2022-12-01T07:41:15.732Z,8.80
2022-12-01T07:43:46.903Z,11.20
2022-12-01T07:46:25.079Z,9.90
2022-12-01T07:48:55.198Z,11.30
2022-12-01T07:51:24.584Z,12.30
2022-12-01T07:53:54.520Z,10.30
2022-12-01T07:56:23.696Z,9.10
2022-12-01T07:58:51.751Z,9.90
2022-12-01T08:01:21.618Z,9.10
2022-12-01T08:03:51.759Z,9.50
2022-12-01T08:06:21.287Z,9.30
2022-12-01T08:08:50.457Z,9.50
2022-12-01T08:11:21.312Z,11.40
2022-12-01T08:13:50.616Z,11.40
2022-12-01T08:16:21.339Z,10.90
2022-12-01T08:18:51.265Z,9.80
2022-12-01T08:21:22.355Z,11.30
2022-12-01T08:23:58.314Z,10.40
2022-12-01T08:26:27.429Z,9.80
2022-12-01T08:28:55.645Z,9.20
2022-12-01T08:31:27.262Z,8.80
2022-12-01T08:33:56.492Z,10.20
2022-12-01T08:36:25.100Z,7.60
2022-12-01T08:41:26.185Z,7.70
2022-12-01T08:43:59.086Z,7.80
2022-12-01T08:46:32.295Z,9.10
2022-12-01T08:49:01.625Z,10.20
2022-12-01T08:51:30.293Z,10.30
2022-12-01T08:53:59.859Z,10.40
2022-12-01T08:56:34.842Z,9.80
2022-12-01T08:59:03.758Z,11.00
2022-12-01T09:01:33.168Z,12.20
2022-12-01T09:04:06.633Z,12.10
2022-12-01T09:06:41.371Z,13.00
2022-12-01T09:09:16.486Z,11.40
2022-12-01T09:11:46.324Z,12.70
2022-12-01T09:14:18.083Z,11.40
2022-12-01T09:16:50.091Z,9.10
2022-12-01T09:19:24.035Z,8.50
2022-12-01T09:21:53.594Z,12.10
2022-12-01T09:24:21.830Z,12.60
2022-12-01T09:26:49.900Z,9.50
2022-12-01T09:29:18.928Z,8.90
2022-12-01T09:31:47.415Z,9.00
2022-12-01T09:34:19.092Z,9.10
2022-12-01T09:36:48.282Z,7.40
2022-12-01T09:39:19.190Z,7.60
2022-12-01T09:41:56.965Z,6.10
2022-12-01T09:44:51.914Z,6.00
2022-12-01T09:47:30.333Z,4.70
2022-12-01T09:50:16.590Z,4.20
2022-12-01T09:52:49.597Z,4.50
2022-12-01T09:55:21.248Z,4.40
2022-12-01T09:57:52.337Z,4.00
2022-12-01T10:00:29.004Z,4.00
2022-12-01T10:03:13.151Z,4.20
2022-12-01T10:06:18.669Z,4.00
2022-12-01T10:08:41.842Z,3.90
2022-12-01T10:11:33.171Z,4.40
2022-12-01T10:14:04.232Z,3.70
2022-12-01T10:16:43.138Z,4.20
2022-12-01T10:19:18.425Z,3.70
2022-12-01T10:22:13.117Z,4.30
2022-12-01T10:24:59.477Z,4.00
2022-12-01T10:27:39.646Z,4.60
2022-12-01T10:30:15.650Z,3.90
2022-12-01T10:32:58.134Z,4.80
2022-12-01T10:35:36.114Z,4.30
2022-12-01T10:38:07.416Z,4.90
2022-12-01T10:40:35.867Z,4.40
2022-12-01T10:43:05.095Z,5.30
2022-12-01T10:45:40.813Z,5.00
2022-12-01T10:48:16.715Z,4.90
2022-12-01T10:50:47.596Z,4.60
2022-12-01T10:53:21.797Z,4.40
2022-12-01T10:55:56.409Z,4.80
2022-12-01T10:58:25.077Z,4.50
2022-12-01T11:01:04.244Z,5.10
2022-12-01T11:03:35.213Z,4.80
2022-12-01T11:06:06.244Z,4.40
2022-12-01T11:08:47.209Z,4.50
2022-12-01T11:11:36.547Z,4.20
2022-12-01T11:14:22.871Z,3.90
2022-12-01T11:16:53.976Z,4.20
2022-12-01T11:19:34.982Z,4.30
2022-12-01T11:22:24.222Z,4.10
2022-12-01T11:24:55.264Z,4.40
2022-12-01T11:27:26.785Z,3.80
2022-12-01T11:29:57.836Z,4.10
2022-12-01T11:32:57.053Z,4.20
2022-12-01T11:35:30.361Z,4.20
2022-12-01T11:40:54.143Z,4.20
2022-12-01T11:43:23.312Z,4.00
2022-12-01T11:45:53.521Z,4.00
2022-12-01T11:48:27.845Z,4.30
2022-12-01T11:51:17.958Z,4.70
2022-12-01T11:53:46.338Z,4.90
2022-12-01T11:56:17.388Z,4.40
2022-12-01T11:58:48.231Z,4.10
2022-12-01T12:01:20.541Z,4.10
2022-12-01T12:03:56.486Z,3.80
2022-12-01T12:06:54.374Z,4.60
2022-12-01T12:09:52.081Z,4.80
2022-12-01T12:12:42.297Z,4.50
2022-12-01T12:15:42.116Z,4.30
2022-12-01T12:18:37.937Z,4.20
2022-12-01T12:21:44.424Z,4.20
2022-12-01T12:24:27.981Z,4.00
2022-12-01T12:27:19.935Z,4.10
2022-12-01T12:30:21.181Z,3.70
2022-12-01T12:33:20.071Z,4.10
2022-12-01T12:36:04.856Z,3.70
2022-12-01T12:38:48.009Z,3.80
2022-12-01T12:41:53.920Z,4.30
2022-12-01T12:44:50.079Z,4.20
2022-12-01T12:47:47.813Z,4.80
2022-12-01T12:50:25.000Z,7.60
2022-12-01T12:53:00.080Z,9.90
2022-12-01T12:55:37.259Z,8.90
2022-12-01T12:58:20.488Z,12.40
2022-12-01T13:01:04.269Z,9.60
2022-12-01T13:03:54.130Z,9.60
2022-12-01T13:06:37.285Z,5.90
2022-12-01T13:09:15.388Z,4.90
2022-12-01T13:11:53.319Z,5.10
2022-12-01T13:14:42.647Z,5.00
2022-12-01T13:17:37.151Z,5.80
2022-12-01T13:20:06.927Z,5.90
2022-12-01T13:22:37.160Z,5.70
2022-12-01T13:25:06.038Z,5.20
2022-12-01T13:27:41.147Z,5.00
2022-12-01T13:30:22.269Z,5.30
2022-12-01T13:33:00.804Z,5.20
2022-12-01T13:35:39.775Z,5.40
2022-12-01T13:38:18.058Z,6.10
2022-12-01T13:40:49.478Z,6.00
2022-12-01T13:43:21.246Z,6.00
2022-12-01T13:45:50.228Z,6.30
2022-12-01T13:48:36.937Z,5.90
2022-12-01T13:51:07.160Z,6.00
2022-12-01T13:53:37.845Z,6.00
2022-12-01T13:56:15.387Z,7.00
2022-12-01T13:58:45.630Z,7.50
2022-12-01T14:01:19.751Z,7.70
2022-12-01T14:04:01.453Z,6.90
2022-12-01T14:06:52.004Z,6.70
2022-12-01T14:09:24.211Z,6.60
2022-12-01T14:12:00.495Z,6.00
2022-12-01T14:14:37.807Z,6.00
2022-12-01T14:17:06.527Z,5.70
2022-12-01T14:19:37.041Z,5.90
2022-12-01T14:22:07.975Z,5.50
2022-12-01T14:24:43.699Z,6.20
2022-12-01T14:27:14.250Z,5.90
2022-12-01T14:29:43.982Z,5.60
2022-12-01T14:32:16.966Z,5.90
2022-12-01T14:34:49.835Z,5.60
2022-12-01T14:37:21.192Z,5.90
2022-12-01T14:39:49.615Z,5.80
2022-12-01T14:42:52.025Z,6.90
2022-12-01T14:45:27.566Z,10.80
2022-12-01T14:48:05.036Z,8.90
2022-12-01T14:50:46.239Z,10.00
2022-12-01T14:53:44.719Z,10.50
2022-12-01T14:56:22.881Z,8.90
2022-12-01T14:58:54.250Z,10.80
2022-12-01T15:01:24.033Z,9.50
2022-12-01T15:03:57.079Z,8.10
2022-12-01T15:06:28.460Z,7.30
2022-12-01T15:09:35.644Z,6.50
2022-12-01T15:12:09.785Z,6.50
2022-12-01T15:14:47.647Z,6.10
2022-12-01T15:17:34.744Z,6.30
2022-12-01T15:20:04.132Z,7.80
2022-12-01T15:22:34.291Z,8.80
2022-12-01T15:25:08.732Z,6.70
2022-12-01T15:27:36.913Z,7.60
2022-12-01T15:30:06.679Z,9.80
2022-12-01T15:32:38.407Z,12.40
2022-12-01T15:35:17.031Z,9.80
2022-12-01T15:37:47.118Z,11.90
2022-12-01T15:43:19.081Z,15.60
2022-12-01T15:45:50.550Z,10.60
2022-12-01T15:48:27.853Z,9.50
2022-12-01T15:51:04.194Z,9.50
2022-12-01T15:53:35.670Z,12.50
2022-12-01T15:56:10.248Z,9.90
2022-12-01T15:58:47.004Z,10.40
2022-12-01T16:01:20.063Z,8.50
2022-12-01T16:04:23.988Z,8.20
2022-12-01T16:07:01.394Z,9.20
2022-12-01T16:09:34.808Z,9.70
2022-12-01T16:12:16.325Z,10.00
2022-12-01T16:15:08.471Z,10.60
2022-12-01T16:17:50.527Z,12.30
2022-12-01T16:20:26.748Z,9.80
2022-12-01T16:22:59.126Z,10.50
2022-12-01T16:25:42.160Z,10.50
2022-12-01T16:28:29.176Z,9.30
2022-12-01T16:30:57.523Z,9.90
2022-12-01T16:33:29.383Z,10.50
2022-12-01T16:36:00.283Z,11.20
2022-12-01T16:38:30.190Z,10.60
2022-12-01T16:41:02.052Z,8.80
2022-12-01T16:43:32.073Z,9.70
2022-12-01T16:46:03.725Z,9.80
2022-12-01T16:48:34.273Z,10.90
2022-12-01T16:51:04.953Z,9.70
2022-12-01T16:53:34.733Z,10.80
2022-12-01T16:56:03.612Z,10.50
2022-12-01T16:58:33.117Z,10.70
2022-12-01T17:01:05.161Z,9.90
2022-12-01T17:03:33.995Z,10.10
2022-12-01T17:06:03.216Z,9.90
2022-12-01T17:08:31.901Z,10.50
2022-12-01T17:11:00.528Z,10.90
2022-12-01T17:13:28.778Z,11.30
2022-12-01T17:15:58.169Z,11.20
2022-12-01T17:18:27.078Z,9.50
2022-12-01T17:21:05.131Z,10.50
2022-12-01T17:23:33.855Z,10.30
2022-12-01T17:26:07.658Z,9.10
2022-12-01T17:28:42.107Z,9.70
2022-12-01T17:31:11.185Z,8.90
2022-12-01T17:33:41.076Z,7.30
2022-12-01T17:36:14.393Z,9.00
2022-12-01T17:38:46.468Z,8.20
2022-12-01T17:41:23.147Z,10.30
2022-12-01T17:43:52.128Z,9.60
2022-12-01T17:46:20.303Z,11.90
2022-12-01T17:48:48.492Z,8.50
2022-12-01T17:51:23.707Z,7.80
2022-12-01T17:53:53.904Z,7.40
2022-12-01T17:56:23.292Z,8.30
2022-12-01T17:58:52.083Z,7.70
2022-12-01T18:01:24.216Z,8.00
2022-12-01T18:03:58.006Z,7.60
2022-12-01T18:06:28.673Z,7.40
2022-12-01T18:08:57.968Z,7.30
2022-12-01T18:11:26.827Z,7.60
2022-12-01T18:13:56.897Z,8.50
2022-12-01T18:16:29.085Z,7.40
2022-12-01T18:18:59.241Z,7.40
2022-12-01T18:21:28.892Z,8.60
2022-12-01T18:24:03.921Z,8.00
2022-12-01T18:26:33.910Z,8.60
2022-12-01T18:29:08.062Z,10.50
2022-12-01T18:31:37.873Z,9.50
2022-12-01T18:34:08.198Z,9.60
2022-12-01T18:36:38.622Z,9.70
2022-12-01T18:41:39.618Z,9.60
2022-12-01T18:44:08.077Z,10.50
2022-12-01T18:46:38.116Z,9.60
2022-12-01T18:49:07.448Z,9.50
2022-12-01T18:51:37.715Z,9.60
2022-12-01T18:54:08.588Z,8.80
2022-12-01T18:56:37.898Z,9.50
2022-12-01T18:59:08.533Z,10.00
2022-12-01T19:01:39.932Z,10.50
2022-12-01T19:04:09.795Z,11.00
2022-12-01T19:06:40.202Z,9.30
2022-12-01T19:09:10.226Z,11.00
2022-12-01T19:11:40.609Z,11.40
2022-12-01T19:16:40.690Z,8.40
2022-12-01T19:19:09.852Z,8.70
2022-12-01T19:21:38.064Z,10.40
2022-12-01T19:24:06.616Z,9.20
2022-12-01T19:26:34.807Z,9.60
2022-12-01T19:29:03.883Z,9.20
2022-12-01T19:31:33.156Z,10.60
2022-12-01T19:34:04.474Z,9.60
2022-12-01T19:36:32.689Z,10.10
2022-12-01T19:39:04.391Z,9.60
2022-12-01T19:41:38.744Z,10.10
2022-12-01T19:44:07.958Z,10.40
2022-12-01T19:46:36.139Z,11.70
2022-12-01T19:49:05.754Z,10.80
2022-12-01T19:51:37.243Z,11.50
2022-12-01T19:54:13.014Z,11.10
2022-12-01T19:56:41.277Z,12.60
2022-12-01T19:59:11.348Z,11.70
2022-12-01T20:01:40.870Z,14.10
2022-12-01T20:04:09.302Z,13.70
2022-12-01T20:06:37.919Z,13.60
2022-12-01T20:09:07.667Z,13.40
2022-12-01T20:11:36.939Z,12.20
2022-12-01T20:14:07.873Z,18.80
2022-12-01T20:16:36.567Z,21.50
2022-12-01T20:19:06.427Z,18.60
2022-12-01T20:21:39.343Z,14.10
2022-12-01T20:24:14.820Z,11.30
2022-12-01T20:26:52.097Z,11.00
2022-12-01T20:29:24.960Z,10.20
2022-12-01T20:31:55.216Z,13.70
2022-12-01T20:36:56.874Z,15.80
2022-12-01T20:39:27.072Z,14.00
2022-12-01T20:41:55.239Z,11.10
2022-12-01T20:44:23.309Z,11.00
2022-12-01T20:46:51.477Z,11.40
2022-12-01T20:49:20.374Z,11.20
2022-12-01T20:51:49.817Z,11.30
2022-12-01T20:54:28.345Z,10.60
2022-12-01T20:56:58.516Z,11.80
2022-12-01T20:59:26.949Z,10.40
2022-12-01T21:01:55.225Z,9.20
2022-12-01T21:04:24.228Z,9.10
2022-12-01T21:06:56.066Z,8.70
2022-12-01T21:09:24.921Z,9.70
2022-12-01T21:12:12.042Z,9.00
2022-12-01T21:14:46.970Z,9.40
2022-12-01T21:17:35.715Z,9.90
2022-12-01T21:20:40.815Z,12.20
2022-12-01T21:23:15.480Z,12.70
2022-12-01T21:25:44.867Z,12.40
2022-12-01T21:28:24.851Z,12.00
2022-12-01T21:31:07.806Z,11.30
2022-12-01T21:33:37.113Z,11.80
2022-12-01T21:36:18.974Z,9.90
2022-12-01T21:38:50.535Z,13.30
2022-12-01T21:41:27.095Z,12.50
2022-12-01T21:44:00.285Z,12.50
2022-12-01T21:46:28.517Z,14.90
2022-12-01T21:48:56.959Z,11.50
2022-12-01T21:51:26.039Z,12.00
2022-12-01T21:53:56.808Z,9.80
2022-12-01T21:56:28.383Z,10.30
2022-12-01T21:59:02.707Z,10.50
2022-12-01T22:01:32.322Z,10.40
2022-12-01T22:04:05.962Z,10.20
2022-12-01T22:06:43.190Z,10.20
2022-12-01T22:09:29.231Z,11.00
2022-12-01T22:12:16.114Z,10.70
2022-12-01T22:14:44.095Z,10.50
2022-12-01T22:17:19.861Z,10.70
2022-12-01T22:20:20.919Z,10.80
2022-12-01T22:22:48.983Z,10.20
2022-12-01T22:25:26.948Z,10.50
2022-12-01T22:27:56.146Z,9.90
2022-12-01T22:30:24.922Z,9.90
2022-12-01T22:32:59.463Z,9.80
2022-12-01T22:35:33.060Z,9.60
2022-12-01T22:38:07.136Z,8.20
2022-12-01T22:40:43.491Z,9.50
2022-12-01T22:43:17.583Z,11.60
2022-12-01T22:45:49.527Z,10.30
2022-12-01T22:48:43.659Z,10.40
2022-12-01T22:51:26.140Z,9.70
2022-12-01T22:54:22.098Z,9.90
2022-12-01T22:56:55.796Z,9.10
2022-12-01T22:59:38.496Z,10.00
2022-12-01T23:02:27.244Z,9.90
2022-12-01T23:04:59.129Z,10.40
2022-12-01T23:07:33.643Z,10.50
2022-12-01T23:10:17.087Z,10.40
2022-12-01T23:12:47.344Z,11.30
2022-12-01T23:15:37.079Z,11.10
2022-12-01T23:18:13.973Z,11.80
2022-12-01T23:20:44.656Z,11.00
2022-12-01T23:23:15.841Z,11.50
2022-12-01T23:25:44.977Z,10.50
2022-12-01T23:28:14.036Z,9.80
2022-12-01T23:30:44.326Z,10.20
2022-12-01T23:33:22.153Z,10.10
2022-12-01T23:35:58.341Z,10.70
2022-12-01T23:38:32.141Z,10.00
2022-12-01T23:41:04.460Z,9.80
2022-12-01T23:43:37.689Z,10.00
2022-12-01T23:46:09.941Z,10.20
2022-12-01T23:48:45.058Z,10.10
2022-12-01T23:51:26.194Z,9.90
2022-12-01T23:53:56.562Z,10.20
2022-12-01T23:56:27.817Z,10.50
2022-12-01T23:58:56.948Z,9.90
